createdAt,value
2019-06-08T00:01:14.381Z,66.90
2019-06-08T00:03:41.011Z,67.40
2019-06-08T00:06:07.627Z,66.80
2019-06-08T00:08:34.366Z,66.70
2019-06-08T00:11:01.072Z,66.80
2019-06-08T00:13:28.639Z,66.90
2019-06-08T00:15:55.045Z,66.80
2019-06-08T00:18:21.641Z,66.80
2019-06-08T00:20:48.306Z,66.30
2019-06-08T00:23:15.736Z,66.40
2019-06-08T00:25:42.382Z,66.10
2019-06-08T00:28:09.030Z,65.70
2019-06-08T00:30:35.658Z,65.60
2019-06-08T00:33:02.322Z,66.10
2019-06-08T00:35:28.595Z,65.60
2019-06-08T00:37:55.194Z,65.90
2019-06-08T00:40:21.419Z,65.80
2019-06-08T00:42:48.153Z,65.70
2019-06-08T00:45:15.304Z,65.80
2019-06-08T00:47:48.097Z,65.70
2019-06-08T00:50:11.227Z,65.80
2019-06-08T00:52:37.451Z,65.70
2019-06-08T00:55:05.027Z,65.60
2019-06-08T00:57:31.562Z,65.60
2019-06-08T00:59:58.174Z,65.20
2019-06-08T01:02:24.851Z,65.50
2019-06-08T01:04:51.454Z,65.40
2019-06-08T01:07:18.128Z,65.20
2019-06-08T01:09:44.740Z,65.20
2019-06-08T01:12:11.546Z,65.30
2019-06-08T01:14:38.017Z,65.60
2019-06-08T01:17:04.747Z,65.50
2019-06-08T01:19:31.308Z,65.80
2019-06-08T01:21:57.539Z,65.70
2019-06-08T01:24:23.890Z,65.70
2019-06-08T01:26:50.122Z,65.20
2019-06-08T01:29:16.684Z,65.80
2019-06-08T01:31:42.951Z,65.70
2019-06-08T01:34:09.487Z,65.90
2019-06-08T01:36:35.778Z,66.00
2019-06-08T01:39:02.135Z,66.00
2019-06-08T01:41:29.543Z,66.00
2019-06-08T01:43:56.027Z,66.40
2019-06-08T01:46:22.290Z,66.40
2019-06-08T01:48:48.922Z,66.40
2019-06-08T01:51:15.539Z,66.20
2019-06-08T01:53:42.227Z,66.50
2019-06-08T01:56:08.915Z,66.90
2019-06-08T01:58:35.574Z,67.10
2019-06-08T02:01:02.327Z,67.20
2019-06-08T02:03:28.731Z,67.30
2019-06-08T02:05:55.412Z,67.10
2019-06-08T02:08:22.009Z,67.20
2019-06-08T02:10:48.692Z,67.10
2019-06-08T02:13:15.286Z,67.10
2019-06-08T02:15:42.123Z,67.40
2019-06-08T02:18:08.578Z,67.30
2019-06-08T02:20:35.394Z,67.20
2019-06-08T02:23:02.008Z,67.70
2019-06-08T02:25:29.367Z,67.80
2019-06-08T02:27:56.148Z,68.10
2019-06-08T02:30:28.162Z,68.10
2019-06-08T02:32:55.943Z,68.00
2019-06-08T02:35:22.486Z,67.70
2019-06-08T02:37:49.043Z,68.10
2019-06-08T02:40:15.897Z,68.40
2019-06-08T02:42:42.144Z,68.60
2019-06-08T02:45:09.192Z,69.00
2019-06-08T02:47:36.937Z,69.10
2019-06-08T02:50:07.350Z,68.90
2019-06-08T02:52:36.330Z,68.70
2019-06-08T02:55:05.030Z,68.90
2019-06-08T02:57:33.194Z,68.70
2019-06-08T03:00:00.429Z,68.70
2019-06-08T03:02:29.555Z,68.50
2019-06-08T03:04:56.201Z,68.40
2019-06-08T03:07:23.781Z,68.00
2019-06-08T03:09:53.696Z,68.20
2019-06-08T03:12:21.794Z,67.90
2019-06-08T03:14:52.103Z,68.10
2019-06-08T03:17:18.660Z,68.30
2019-06-08T03:19:45.250Z,68.60
2019-06-08T03:22:11.484Z,68.80
2019-06-08T03:24:38.695Z,68.80
2019-06-08T03:27:05.587Z,69.10
2019-06-08T03:29:32.533Z,69.10
2019-06-08T03:31:59.277Z,69.20
2019-06-08T03:34:25.948Z,69.30
2019-06-08T03:36:56.884Z,69.10
2019-06-08T03:39:20.865Z,70.20
2019-06-08T03:41:47.470Z,69.40
2019-06-08T03:44:14.911Z,69.80
2019-06-08T03:46:43.436Z,69.80
2019-06-08T03:49:09.836Z,69.90
2019-06-08T03:51:40.097Z,70.40
2019-06-08T03:54:04.890Z,70.30
2019-06-08T03:56:31.174Z,71.00
2019-06-08T03:58:57.638Z,71.60
2019-06-08T04:01:24.262Z,71.90
2019-06-08T04:03:50.917Z,72.50
2019-06-08T04:06:17.549Z,74.00
2019-06-08T04:08:45.301Z,73.90
2019-06-08T04:11:12.450Z,74.10
2019-06-08T04:13:39.949Z,74.70
2019-06-08T04:16:06.958Z,75.10
2019-06-08T04:18:33.606Z,75.10
2019-06-08T04:20:59.859Z,75.00
2019-06-08T04:23:26.462Z,75.90
2019-06-08T04:25:52.710Z,75.10
2019-06-08T04:28:19.034Z,75.00
2019-06-08T04:30:47.161Z,75.50
2019-06-08T04:33:13.942Z,77.00
2019-06-08T04:35:42.551Z,77.20
2019-06-08T04:38:08.672Z,78.60
2019-06-08T04:40:35.098Z,79.00
2019-06-08T04:43:02.135Z,79.80
2019-06-08T04:45:28.420Z,79.40
2019-06-08T04:47:54.914Z,78.60
2019-06-08T04:50:24.013Z,79.00
2019-06-08T04:52:49.969Z,80.10
2019-06-08T04:55:16.497Z,80.20
2019-06-08T04:57:43.817Z,81.70
2019-06-08T05:00:13.012Z,82.00
2019-06-08T05:02:41.537Z,82.00
2019-06-08T05:05:08.143Z,80.80
2019-06-08T05:07:34.600Z,80.70
2019-06-08T05:10:01.222Z,79.80
2019-06-08T05:12:27.840Z,80.50
2019-06-08T05:14:54.471Z,79.90
2019-06-08T05:17:21.129Z,79.30
2019-06-08T05:19:47.755Z,80.20
2019-06-08T05:22:14.412Z,79.40
2019-06-08T05:24:41.343Z,80.60
2019-06-08T05:27:07.709Z,80.60
2019-06-08T05:29:34.309Z,81.00
2019-06-08T05:32:00.947Z,80.20
2019-06-08T05:34:27.618Z,79.80
2019-06-08T05:36:54.242Z,79.50
2019-06-08T05:39:20.882Z,79.80
2019-06-08T05:41:47.657Z,79.20
2019-06-08T05:44:14.149Z,78.80
2019-06-08T05:46:41.735Z,77.80
2019-06-08T05:49:08.332Z,76.00
2019-06-08T05:51:34.893Z,76.10
2019-06-08T05:54:03.067Z,75.30
2019-06-08T05:56:29.417Z,75.20
2019-06-08T05:58:56.019Z,76.00
2019-06-08T06:01:22.661Z,76.60
2019-06-08T06:03:51.437Z,74.60
2019-06-08T06:06:17.579Z,73.20
2019-06-08T06:08:44.657Z,72.30
2019-06-08T06:11:11.771Z,73.10
2019-06-08T06:13:38.360Z,72.50
2019-06-08T06:16:05.043Z,72.20
2019-06-08T06:18:31.602Z,71.20
2019-06-08T06:21:10.288Z,71.20
2019-06-08T06:23:26.318Z,69.30
2019-06-08T06:25:52.588Z,69.70
2019-06-08T06:28:18.957Z,70.20
2019-06-08T06:30:46.642Z,70.50
2019-06-08T06:33:13.467Z,70.70
2019-06-08T06:35:40.098Z,69.90
2019-06-08T06:38:06.505Z,69.20
2019-06-08T06:40:32.977Z,69.60
2019-06-08T06:42:59.639Z,68.90
2019-06-08T06:45:46.062Z,68.40
2019-06-08T06:48:12.795Z,69.40
2019-06-08T06:50:39.179Z,69.20
2019-06-08T06:53:05.828Z,66.90
2019-06-08T06:55:32.474Z,64.30
2019-06-08T06:57:59.122Z,62.40
2019-06-08T07:00:30.066Z,61.10
2019-06-08T07:02:57.902Z,61.00
2019-06-08T07:05:24.363Z,61.50
2019-06-08T07:07:52.150Z,62.30
2019-06-08T07:10:18.975Z,64.30
2019-06-08T07:12:46.513Z,64.30
2019-06-08T07:15:16.770Z,63.70
2019-06-08T07:17:43.263Z,61.00
2019-06-08T07:20:09.994Z,60.60
2019-06-08T07:22:36.581Z,60.50
2019-06-08T07:25:04.485Z,60.40
2019-06-08T07:27:31.892Z,61.60
2019-06-08T07:29:59.029Z,61.50
2019-06-08T07:32:25.980Z,59.50
2019-06-08T07:34:53.183Z,60.30
2019-06-08T07:37:20.102Z,59.90
2019-06-08T07:39:47.173Z,58.80
2019-06-08T07:42:14.572Z,58.70
2019-06-08T07:44:41.258Z,59.20
2019-06-08T07:47:07.848Z,60.80
2019-06-08T07:49:34.480Z,62.00
2019-06-08T07:52:09.421Z,62.20
2019-06-08T07:54:29.178Z,63.40
2019-06-08T07:56:56.956Z,63.70
2019-06-08T07:59:23.902Z,64.60
2019-06-08T08:01:50.141Z,64.90
2019-06-08T08:04:16.785Z,65.50
2019-06-08T08:07:02.906Z,66.20
2019-06-08T08:09:29.570Z,66.80
2019-06-08T08:11:57.177Z,66.40
2019-06-08T08:14:23.905Z,67.40
2019-06-08T08:16:51.272Z,67.20
2019-06-08T08:19:17.521Z,66.70
2019-06-08T08:21:44.127Z,66.40
2019-06-08T08:24:10.363Z,65.30
2019-06-08T08:26:39.139Z,65.20
2019-06-08T08:29:05.204Z,65.10
2019-06-08T08:31:31.452Z,65.40
2019-06-08T08:34:03.348Z,65.40
2019-06-08T08:36:28.853Z,65.30
2019-06-08T08:38:54.153Z,65.40
2019-06-08T08:41:20.534Z,65.00
2019-06-08T08:43:48.438Z,65.50
2019-06-08T08:46:17.322Z,65.80
2019-06-08T08:48:43.503Z,65.70
2019-06-08T08:51:10.154Z,65.60
2019-06-08T08:53:37.476Z,65.30
2019-06-08T08:56:03.787Z,65.00
2019-06-08T08:58:30.284Z,64.50
2019-06-08T09:01:00.142Z,64.40
2019-06-08T09:03:30.970Z,64.60
2019-06-08T09:05:54.681Z,64.70
2019-06-08T09:08:23.361Z,64.70
2019-06-08T09:10:51.762Z,64.60
2019-06-08T09:13:18.578Z,64.00
2019-06-08T09:15:47.860Z,63.50
2019-06-08T09:18:14.088Z,64.00
2019-06-08T09:20:40.685Z,63.30
2019-06-08T09:23:15.826Z,63.40
2019-06-08T09:25:37.358Z,61.70
2019-06-08T09:28:04.897Z,61.10
2019-06-08T09:30:31.839Z,60.90
2019-06-08T09:33:00.665Z,61.30
2019-06-08T09:35:27.998Z,60.20
2019-06-08T09:37:54.917Z,60.10
2019-06-08T09:40:21.869Z,60.70
2019-06-08T09:42:50.841Z,61.20
2019-06-08T09:45:18.224Z,61.40
2019-06-08T09:47:44.749Z,62.00
2019-06-08T09:50:12.045Z,62.20
2019-06-08T09:52:41.030Z,61.10
2019-06-08T09:55:09.196Z,62.20
2019-06-08T09:57:38.314Z,62.30
2019-06-08T10:00:15.347Z,61.00
2019-06-08T10:02:35.033Z,60.30
2019-06-08T10:05:04.039Z,60.60
2019-06-08T10:07:31.389Z,61.20
2019-06-08T10:10:00.322Z,61.10
2019-06-08T10:12:28.068Z,61.30
2019-06-08T10:14:54.558Z,62.00
2019-06-08T10:17:21.749Z,62.00
2019-06-08T10:19:48.054Z,61.10
2019-06-08T10:22:14.483Z,60.00
2019-06-08T10:24:41.527Z,59.40
2019-06-08T10:27:11.232Z,59.20
2019-06-08T10:29:38.318Z,58.90
2019-06-08T10:32:08.675Z,58.40
2019-06-08T10:34:34.813Z,56.40
2019-06-08T10:37:06.447Z,54.00
2019-06-08T10:39:29.601Z,51.20
2019-06-08T10:41:59.308Z,47.20
2019-06-08T10:44:24.517Z,48.70
2019-06-08T10:46:50.910Z,50.20
2019-06-08T10:49:18.718Z,52.50
2019-06-08T10:51:45.383Z,54.90
2019-06-08T10:54:11.646Z,56.80
2019-06-08T10:56:38.531Z,57.30
2019-06-08T10:59:09.958Z,56.60
2019-06-08T11:01:33.799Z,56.10
2019-06-08T11:04:01.557Z,57.00
2019-06-08T11:06:28.311Z,56.50
2019-06-08T11:08:54.560Z,55.80
2019-06-08T11:11:21.388Z,54.70
2019-06-08T11:13:50.073Z,54.10
2019-06-08T11:16:17.959Z,53.10
2019-06-08T11:18:44.408Z,53.90
2019-06-08T11:21:12.827Z,53.50
2019-06-08T11:23:41.678Z,51.80
2019-06-08T11:26:13.824Z,50.70
2019-06-08T11:28:38.158Z,48.10
2019-06-08T11:31:04.152Z,45.60
2019-06-08T11:33:30.570Z,46.10
2019-06-08T11:35:58.192Z,46.60
2019-06-08T11:38:24.951Z,45.50
2019-06-08T11:40:51.577Z,45.40
2019-06-08T11:43:18.421Z,46.30
2019-06-08T11:45:44.915Z,49.90
2019-06-08T11:48:11.164Z,55.40
2019-06-08T11:50:42.239Z,60.30
2019-06-08T11:53:13.501Z,68.80
2019-06-08T11:55:38.498Z,74.20
2019-06-08T11:58:05.080Z,72.30
2019-06-08T12:00:54.261Z,73.00
2019-06-08T12:03:20.680Z,68.90
2019-06-08T12:05:47.739Z,68.90
2019-06-08T12:08:17.588Z,68.30
2019-06-08T12:10:44.530Z,70.00
2019-06-08T12:13:12.862Z,67.80
2019-06-08T12:15:40.171Z,65.90
2019-06-08T12:18:10.665Z,60.80
2019-06-08T12:20:37.686Z,56.20
2019-06-08T12:23:04.284Z,56.60
2019-06-08T12:25:30.932Z,57.10
2019-06-08T12:27:58.519Z,59.00
2019-06-08T12:30:26.500Z,56.40
2019-06-08T12:32:53.644Z,54.20
2019-06-08T12:35:20.144Z,53.30
2019-06-08T12:37:48.361Z,52.70
2019-06-08T12:40:16.907Z,55.10
2019-06-08T12:42:43.150Z,55.90
2019-06-08T12:45:09.591Z,54.40
2019-06-08T12:47:38.011Z,52.90
2019-06-08T12:50:04.887Z,49.30
2019-06-08T12:52:31.147Z,48.20
2019-06-08T12:55:06.093Z,47.10
2019-06-08T12:57:25.472Z,43.50
2019-06-08T12:59:51.698Z,44.80
2019-06-08T13:02:22.459Z,49.00
2019-06-08T13:04:48.026Z,56.10
2019-06-08T13:07:14.908Z,66.90
2019-06-08T13:09:41.259Z,73.10
2019-06-08T13:12:07.998Z,75.10
2019-06-08T13:14:35.552Z,75.80
2019-06-08T13:17:01.783Z,78.00
2019-06-08T13:19:28.031Z,76.80
2019-06-08T13:21:54.283Z,76.70
2019-06-08T13:24:20.535Z,77.80
2019-06-08T13:26:50.376Z,74.80
2019-06-08T13:29:15.565Z,73.90
2019-06-08T13:31:41.866Z,70.00
2019-06-08T13:34:10.659Z,71.70
2019-06-08T13:36:38.683Z,69.30
2019-06-08T13:39:05.035Z,71.20
2019-06-08T13:41:31.300Z,69.70
2019-06-08T13:43:58.082Z,71.40
2019-06-08T13:46:24.592Z,72.80
2019-06-08T13:48:50.830Z,70.40
2019-06-08T13:51:20.690Z,68.90
2019-06-08T13:53:47.847Z,65.60
2019-06-08T13:56:13.203Z,64.50
2019-06-08T13:58:39.507Z,62.60
2019-06-08T14:01:05.844Z,64.30
2019-06-08T14:03:32.402Z,62.30
2019-06-08T14:05:58.635Z,62.30
2019-06-08T14:08:29.973Z,63.00
2019-06-08T14:10:53.734Z,62.90
2019-06-08T14:13:26.553Z,59.40
2019-06-08T14:15:48.698Z,59.70
2019-06-08T14:18:20.877Z,59.90
2019-06-08T14:20:43.428Z,59.60
2019-06-08T14:23:09.691Z,59.50
2019-06-08T14:25:47.908Z,59.50
2019-06-08T14:28:04.362Z,59.60
2019-06-08T14:30:32.893Z,56.90
2019-06-08T14:32:59.275Z,57.00
2019-06-08T14:35:27.147Z,56.50
2019-06-08T14:37:54.239Z,53.80
2019-06-08T14:40:21.394Z,52.80
2019-06-08T14:42:48.479Z,51.80
2019-06-08T14:45:17.767Z,51.50
2019-06-08T14:47:44.863Z,51.40
2019-06-08T14:50:11.507Z,52.80
2019-06-08T14:52:38.284Z,53.30
2019-06-08T14:55:04.808Z,53.50
2019-06-08T14:57:31.173Z,53.70
2019-06-08T14:59:59.975Z,52.10
2019-06-08T15:02:28.161Z,52.60
2019-06-08T15:04:53.831Z,53.50
2019-06-08T15:07:23.230Z,54.20
2019-06-08T15:09:48.602Z,55.70
2019-06-08T15:12:15.052Z,55.10
2019-06-08T15:14:41.700Z,54.40
2019-06-08T15:17:08.709Z,54.50
2019-06-08T15:19:35.279Z,55.20
2019-06-08T15:22:02.397Z,55.30
2019-06-08T15:24:29.736Z,56.10
2019-06-08T15:26:58.309Z,56.00
2019-06-08T15:29:27.855Z,55.30
2019-06-08T15:31:53.379Z,55.10
2019-06-08T15:34:21.137Z,52.60
2019-06-08T15:36:48.272Z,51.90
2019-06-08T15:39:14.636Z,51.60
2019-06-08T15:41:41.213Z,51.90
2019-06-08T15:44:07.823Z,53.10
2019-06-08T15:46:34.518Z,52.10
2019-06-08T15:49:01.062Z,55.00
2019-06-08T15:51:29.878Z,58.00
2019-06-08T15:53:57.946Z,64.80
2019-06-08T15:56:40.816Z,68.80
2019-06-08T15:58:52.648Z,68.80
2019-06-08T16:01:18.929Z,68.60
2019-06-08T16:03:45.180Z,66.30
2019-06-08T16:06:11.456Z,65.50
2019-06-08T16:08:38.070Z,63.50
2019-06-08T16:11:04.505Z,63.40
2019-06-08T16:13:30.732Z,62.40
2019-06-08T16:15:56.991Z,60.70
2019-06-08T16:18:23.339Z,58.20
2019-06-08T16:20:49.637Z,56.40
2019-06-08T16:23:15.880Z,56.50
2019-06-08T16:25:42.140Z,56.10
2019-06-08T16:28:08.395Z,55.70
2019-06-08T16:30:35.108Z,55.50
2019-06-08T16:33:01.403Z,56.30
2019-06-08T16:35:28.093Z,57.40
2019-06-08T16:37:55.840Z,58.20
2019-06-08T16:40:22.166Z,57.10
2019-06-08T16:42:48.518Z,57.40
2019-06-08T16:45:15.903Z,57.10
2019-06-08T16:47:43.735Z,57.10
2019-06-08T16:50:23.425Z,56.20
2019-06-08T16:52:38.992Z,56.60
2019-06-08T16:55:06.282Z,57.00
2019-06-08T16:57:35.076Z,56.10
2019-06-08T17:00:29.491Z,55.50
2019-06-08T17:02:30.712Z,54.80
2019-06-08T17:04:57.498Z,55.90
2019-06-08T17:07:24.179Z,56.00
2019-06-08T17:09:50.399Z,56.30
2019-06-08T17:12:17.018Z,57.00
2019-06-08T17:14:43.683Z,57.60
2019-06-08T17:17:10.305Z,58.10
2019-06-08T17:19:38.487Z,58.60
2019-06-08T17:22:05.237Z,58.60
2019-06-08T17:24:32.527Z,59.60
2019-06-08T17:26:59.321Z,61.20
2019-06-08T17:29:25.941Z,60.70
2019-06-08T17:31:52.607Z,60.70
2019-06-08T17:34:20.640Z,61.40
2019-06-08T17:36:47.341Z,62.60
2019-06-08T17:39:15.526Z,63.20
2019-06-08T17:41:42.569Z,63.50
2019-06-08T17:44:08.996Z,63.70
2019-06-08T17:46:36.539Z,63.60
2019-06-08T17:49:03.328Z,63.70
2019-06-08T17:51:29.579Z,63.30
2019-06-08T17:53:56.076Z,63.70
2019-06-08T17:56:22.672Z,63.30
2019-06-08T17:58:48.949Z,64.10
2019-06-08T18:01:15.279Z,63.90
2019-06-08T18:03:42.672Z,64.30
2019-06-08T18:06:09.616Z,64.30
2019-06-08T18:08:39.169Z,64.80
2019-06-08T18:11:04.446Z,64.50
2019-06-08T18:13:30.868Z,65.40
2019-06-08T18:15:57.699Z,65.00
2019-06-08T18:18:24.471Z,64.40
2019-06-08T18:20:52.213Z,64.10
2019-06-08T18:23:18.951Z,64.80
2019-06-08T18:25:48.038Z,65.10
2019-06-08T18:28:14.279Z,65.10
2019-06-08T18:30:43.180Z,64.60
2019-06-08T18:33:09.223Z,63.90
2019-06-08T18:35:39.411Z,64.40
2019-06-08T18:38:04.171Z,64.10
2019-06-08T18:40:30.395Z,63.90
2019-06-08T18:42:57.665Z,60.90
2019-06-08T18:45:24.422Z,58.80
2019-06-08T18:47:51.089Z,57.10
2019-06-08T18:50:17.851Z,56.60
2019-06-08T18:52:46.232Z,56.40
2019-06-08T18:55:13.153Z,57.10
2019-06-08T18:57:41.051Z,57.70
2019-06-08T19:00:11.580Z,58.20
2019-06-08T19:02:39.941Z,58.00
2019-06-08T19:05:05.367Z,58.30
2019-06-08T19:07:32.971Z,58.70
2019-06-08T19:10:02.155Z,59.20
2019-06-08T19:12:28.527Z,59.50
2019-06-08T19:14:54.883Z,59.10
2019-06-08T19:17:21.437Z,59.30
2019-06-08T19:19:51.972Z,59.40
2019-06-08T19:22:18.784Z,59.70
2019-06-08T19:24:45.410Z,59.80
2019-06-08T19:27:12.883Z,60.10
2019-06-08T19:29:42.005Z,59.90
2019-06-08T19:32:07.811Z,60.60
2019-06-08T19:34:34.411Z,60.70
2019-06-08T19:37:01.037Z,61.70
2019-06-08T19:39:28.333Z,61.80
2019-06-08T19:41:57.229Z,62.50
2019-06-08T19:44:23.911Z,62.90
2019-06-08T19:46:52.444Z,63.80
2019-06-08T19:49:18.338Z,64.80
2019-06-08T19:51:47.703Z,64.90
2019-06-08T19:54:13.259Z,65.00
2019-06-08T19:56:40.644Z,64.90
2019-06-08T19:59:08.536Z,65.30
2019-06-08T20:01:35.216Z,65.60
2019-06-08T20:04:01.874Z,65.70
2019-06-08T20:06:28.485Z,66.20
2019-06-08T20:08:57.315Z,67.60
2019-06-08T20:11:22.795Z,67.90
2019-06-08T20:13:50.421Z,68.70
2019-06-08T20:16:17.514Z,69.10
2019-06-08T20:18:44.166Z,69.40
2019-06-08T20:21:10.793Z,69.50
2019-06-08T20:23:38.232Z,69.20
2019-06-08T20:26:05.374Z,69.10
2019-06-08T20:28:31.951Z,69.50
2019-06-08T20:30:58.773Z,69.90
2019-06-08T20:33:27.263Z,69.40
2019-06-08T20:35:53.917Z,69.70
2019-06-08T20:38:34.023Z,70.00
2019-06-08T20:40:48.631Z,70.10
2019-06-08T20:43:17.272Z,70.20
2019-06-08T20:45:44.092Z,70.70
2019-06-08T20:48:10.766Z,71.20
2019-06-08T20:50:37.790Z,71.30
2019-06-08T20:53:04.863Z,71.20
2019-06-08T20:55:31.540Z,71.40
2019-06-08T20:57:58.146Z,71.80
2019-06-08T21:00:24.778Z,72.00
2019-06-08T21:02:51.961Z,71.90
2019-06-08T21:05:20.506Z,71.70
2019-06-08T21:07:49.519Z,71.90
2019-06-08T21:10:17.329Z,71.80
2019-06-08T21:12:45.172Z,71.90
2019-06-08T21:15:11.682Z,71.90
2019-06-08T21:17:38.539Z,71.80
2019-06-08T21:20:08.288Z,72.70
2019-06-08T21:22:34.351Z,73.80
2019-06-08T21:25:01.048Z,74.30
2019-06-08T21:27:27.830Z,74.20
2019-06-08T21:30:02.228Z,74.40
2019-06-08T21:32:22.684Z,74.10
2019-06-08T21:34:51.756Z,73.80
2019-06-08T21:37:18.617Z,73.70
2019-06-08T21:39:44.951Z,73.20
2019-06-08T21:42:11.190Z,73.60
2019-06-08T21:44:37.466Z,72.90
2019-06-08T21:47:03.695Z,73.10
2019-06-08T21:49:31.094Z,72.60
2019-06-08T21:52:00.723Z,72.50
2019-06-08T21:54:27.175Z,71.70
2019-06-08T21:56:54.655Z,71.60
2019-06-08T21:59:21.419Z,71.70
2019-06-08T22:01:51.462Z,71.30
2019-06-08T22:04:18.517Z,71.00
2019-06-08T22:06:44.878Z,71.70
2019-06-08T22:09:11.139Z,71.10
2019-06-08T22:11:37.664Z,71.40
2019-06-08T22:14:04.237Z,72.30
2019-06-08T22:16:30.477Z,72.90
2019-06-08T22:18:59.791Z,73.40
2019-06-08T22:21:27.808Z,73.70
2019-06-08T22:23:53.433Z,73.60
2019-06-08T22:26:20.099Z,73.80
2019-06-08T22:28:48.239Z,73.50
2019-06-08T22:31:17.101Z,73.30
2019-06-08T22:33:43.710Z,73.20
2019-06-08T22:36:10.313Z,73.30
2019-06-08T22:38:37.355Z,73.40
2019-06-08T22:41:04.002Z,73.50
2019-06-08T22:43:30.676Z,73.70
2019-06-08T22:45:59.126Z,73.70
2019-06-08T22:48:27.617Z,73.60
2019-06-08T22:50:55.585Z,73.60
2019-06-08T22:53:22.097Z,73.80
2019-06-08T22:55:48.772Z,73.50
2019-06-08T22:58:15.374Z,73.80
2019-06-08T23:00:52.179Z,74.10
2019-06-08T23:03:10.326Z,74.30
2019-06-08T23:05:36.969Z,74.80
2019-06-08T23:08:05.139Z,75.10
2019-06-08T23:10:31.852Z,75.50
2019-06-08T23:13:00.743Z,76.00
2019-06-08T23:15:26.795Z,76.70
2019-06-08T23:17:54.762Z,76.20
2019-06-08T23:20:21.720Z,75.70
2019-06-08T23:22:48.355Z,75.90
2019-06-08T23:25:14.958Z,75.60
2019-06-08T23:27:41.637Z,75.70
2019-06-08T23:30:10.194Z,75.50
2019-06-08T23:32:38.621Z,75.40
2019-06-08T23:35:08.870Z,74.90
2019-06-08T23:37:37.270Z,74.50
2019-06-08T23:40:05.509Z,74.30
2019-06-08T23:42:31.751Z,74.50
2019-06-08T23:44:59.489Z,74.00
2019-06-08T23:47:27.423Z,73.70
2019-06-08T23:49:54.069Z,74.50
2019-06-08T23:52:20.742Z,73.90
2019-06-08T23:54:47.754Z,74.20
2019-06-08T23:57:14.367Z,75.00
2019-06-08T23:59:41.052Z,75.30
